createdAt,value
2023-02-25T00:01:41.743Z,100787.22
2023-02-25T00:04:11.721Z,100784.78
2023-02-25T00:06:38.818Z,100789.56
2023-02-25T00:09:06.941Z,100795.47
2023-02-25T00:11:34.102Z,100796.72
2023-02-25T00:14:01.949Z,100796.09
2023-02-25T00:16:29.037Z,100794.34
2023-02-25T00:18:57.352Z,100798.25
2023-02-25T00:21:25.535Z,100801.44
2023-02-25T00:23:53.694Z,100799.53
2023-02-25T00:26:22.285Z,100801.59
2023-02-25T00:28:50.368Z,100802.03
2023-02-25T00:31:22.208Z,100803.16
2023-02-25T00:33:50.676Z,100804.34
2023-02-25T00:36:23.407Z,100813.00
2023-02-25T00:38:55.991Z,100812.91
2023-02-25T00:41:27.321Z,100810.69
2023-02-25T00:44:00.379Z,100825.75
2023-02-25T00:46:29.446Z,100812.31
2023-02-25T00:48:57.029Z,100822.03
2023-02-25T00:51:28.414Z,100822.06
2023-02-25T00:53:56.615Z,100816.19
2023-02-25T00:56:25.630Z,100822.38
2023-02-25T00:58:54.119Z,100819.31
2023-02-25T01:01:33.272Z,100823.00
2023-02-25T01:04:01.429Z,100819.41
2023-02-25T01:06:31.039Z,100826.25
2023-02-25T01:08:59.451Z,100841.16
2023-02-25T01:11:34.488Z,100849.53
2023-02-25T01:14:15.478Z,100841.13
2023-02-25T01:16:43.049Z,100838.84
2023-02-25T01:19:21.530Z,100837.22
2023-02-25T01:21:52.876Z,100848.75
2023-02-25T01:24:29.964Z,100833.44
2023-02-25T01:27:00.314Z,100830.06
2023-02-25T01:29:35.111Z,100823.16
2023-02-25T01:32:08.739Z,100830.84
2023-02-25T01:34:40.046Z,100824.03
2023-02-25T01:37:07.117Z,100827.63
2023-02-25T01:39:34.672Z,100827.75
2023-02-25T01:42:05.546Z,100818.00
2023-02-25T01:45:17.602Z,100829.88
2023-02-25T01:48:10.142Z,100828.97
2023-02-25T01:50:47.513Z,100824.31
2023-02-25T01:53:19.566Z,100830.94
2023-02-25T01:55:47.555Z,100824.59
2023-02-25T01:58:15.760Z,100822.41
2023-02-25T02:00:42.984Z,100816.69
2023-02-25T02:03:16.182Z,100820.69
2023-02-25T02:05:56.627Z,100831.63
2023-02-25T02:08:24.659Z,100828.59
2023-02-25T02:10:52.015Z,100834.00
2023-02-25T02:13:20.304Z,100829.72
2023-02-25T02:16:14.428Z,100830.88
2023-02-25T02:18:58.992Z,100830.78
2023-02-25T02:21:47.516Z,100830.78
2023-02-25T02:24:45.389Z,100829.31
2023-02-25T02:27:30.685Z,100842.34
2023-02-25T02:30:12.097Z,100836.84
2023-02-25T02:32:52.699Z,100833.13
2023-02-25T02:36:03.751Z,100841.25
2023-02-25T02:38:57.450Z,100823.44
2023-02-25T02:41:35.930Z,100835.84
2023-02-25T02:44:18.354Z,100826.41
2023-02-25T02:47:00.164Z,100829.28
2023-02-25T02:49:31.719Z,100822.88
2023-02-25T02:52:07.418Z,100828.78
2023-02-25T02:54:37.966Z,100826.41
2023-02-25T02:57:09.553Z,100832.78
2023-02-25T02:59:51.701Z,100830.88
2023-02-25T03:02:31.853Z,100829.38
2023-02-25T03:05:09.817Z,100838.03
2023-02-25T03:07:44.250Z,100839.69
2023-02-25T03:10:19.500Z,100846.25
2023-02-25T03:12:46.477Z,100843.75
2023-02-25T03:15:14.982Z,100840.78
2023-02-25T03:17:51.809Z,100830.81
2023-02-25T03:20:58.363Z,100837.56
2023-02-25T03:23:31.877Z,100831.50
2023-02-25T03:26:13.822Z,100831.84
2023-02-25T03:28:44.994Z,100840.31
2023-02-25T03:31:42.570Z,100832.16
2023-02-25T03:34:41.442Z,100828.91
2023-02-25T03:37:31.442Z,100838.59
2023-02-25T03:40:11.420Z,100837.59
2023-02-25T03:42:46.729Z,100832.31
2023-02-25T03:45:15.416Z,100830.22
2023-02-25T03:47:44.076Z,100834.59
2023-02-25T03:50:41.398Z,100840.06
2023-02-25T03:53:08.579Z,100842.97
2023-02-25T03:55:38.480Z,100846.31
2023-02-25T03:58:08.930Z,100831.41
2023-02-25T04:00:37.505Z,100836.16
2023-02-25T04:03:05.494Z,100821.97
2023-02-25T04:05:32.674Z,100828.41
2023-02-25T04:08:00.102Z,100830.94
2023-02-25T04:10:28.207Z,100831.72
2023-02-25T04:12:55.331Z,100839.69
2023-02-25T04:15:22.615Z,100839.88
2023-02-25T04:17:49.768Z,100855.38
2023-02-25T04:20:17.386Z,100853.19
2023-02-25T04:22:46.091Z,100858.13
2023-02-25T04:25:13.156Z,100854.72
2023-02-25T04:27:40.209Z,100858.19
2023-02-25T04:30:08.471Z,100863.03
2023-02-25T04:32:35.516Z,100861.16
2023-02-25T04:35:03.605Z,100863.00
2023-02-25T04:37:31.220Z,100866.28
2023-02-25T04:39:58.584Z,100862.09
2023-02-25T04:42:25.745Z,100861.66
2023-02-25T04:44:52.745Z,100865.19
2023-02-25T04:47:19.734Z,100867.59
2023-02-25T04:49:46.745Z,100864.66
2023-02-25T04:52:16.699Z,100865.66
2023-02-25T04:54:43.744Z,100872.13
2023-02-25T04:57:12.671Z,100866.84
2023-02-25T04:59:40.869Z,100860.91
2023-02-25T05:02:26.171Z,100865.38
2023-02-25T05:05:00.575Z,100860.97
2023-02-25T05:07:27.797Z,100863.56
2023-02-25T05:09:54.801Z,100866.50
2023-02-25T05:12:21.756Z,100862.09
2023-02-25T05:14:48.997Z,100857.94
2023-02-25T05:17:44.250Z,100850.09
2023-02-25T05:20:12.785Z,100855.00
2023-02-25T05:22:41.592Z,100856.91
2023-02-25T05:25:10.461Z,100851.66
2023-02-25T05:27:37.815Z,100847.66
2023-02-25T05:30:05.634Z,100850.47
2023-02-25T05:32:32.891Z,100859.38
2023-02-25T05:35:00.602Z,100857.09
2023-02-25T05:37:27.673Z,100860.03
2023-02-25T05:39:54.657Z,100862.13
2023-02-25T05:42:21.811Z,100864.09
2023-02-25T05:44:48.873Z,100857.84
2023-02-25T05:47:16.361Z,100858.06
2023-02-25T05:49:43.848Z,100867.88
2023-02-25T05:52:13.410Z,100866.81
2023-02-25T05:54:40.675Z,100868.03
2023-02-25T05:57:07.717Z,100860.13
2023-02-25T05:59:36.788Z,100866.81
2023-02-25T06:02:04.659Z,100856.81
2023-02-25T06:04:31.713Z,100857.25
2023-02-25T06:06:58.708Z,100865.19
2023-02-25T06:09:26.910Z,100872.03
2023-02-25T06:11:53.932Z,100873.59
2023-02-25T06:14:21.174Z,100877.53
2023-02-25T06:16:48.246Z,100884.94
2023-02-25T06:19:15.510Z,100877.69
2023-02-25T06:21:42.610Z,100889.34
2023-02-25T06:24:11.008Z,100892.16
2023-02-25T06:26:42.823Z,100898.94
2023-02-25T06:29:10.402Z,100886.72
2023-02-25T06:31:37.521Z,100895.91
2023-02-25T06:34:05.346Z,100908.47
2023-02-25T06:36:32.900Z,100903.91
2023-02-25T06:39:01.263Z,100913.19
2023-02-25T06:41:28.498Z,100906.47
2023-02-25T06:43:55.589Z,100915.94
2023-02-25T06:46:27.641Z,100916.78
2023-02-25T06:48:55.735Z,100922.69
2023-02-25T06:51:23.472Z,100923.38
2023-02-25T06:53:53.127Z,100922.13
2023-02-25T06:56:33.536Z,100934.84
2023-02-25T06:59:00.723Z,100937.13
2023-02-25T07:01:27.893Z,100932.75
2023-02-25T07:03:55.046Z,100935.03
2023-02-25T07:06:23.428Z,100932.75
2023-02-25T07:08:52.436Z,100931.13
2023-02-25T07:11:19.299Z,100935.03
2023-02-25T07:13:50.525Z,100936.31
2023-02-25T07:16:18.130Z,100935.75
2023-02-25T07:18:45.720Z,100935.16
2023-02-25T07:21:14.550Z,100933.94
2023-02-25T07:23:42.642Z,100940.94
2023-02-25T07:26:12.656Z,100942.19
2023-02-25T07:28:40.375Z,100954.25
2023-02-25T07:31:15.569Z,100956.56
2023-02-25T07:33:43.459Z,100985.88
2023-02-25T07:36:12.382Z,101004.19
2023-02-25T07:38:39.692Z,100987.16
2023-02-25T07:41:13.794Z,100984.81
2023-02-25T07:43:41.440Z,100966.81
2023-02-25T07:46:09.964Z,100963.81
2023-02-25T07:48:37.411Z,100962.31
2023-02-25T07:51:06.788Z,100965.81
2023-02-25T07:53:33.770Z,100953.97
2023-02-25T07:56:01.211Z,100957.28
2023-02-25T07:58:28.715Z,100967.66
2023-02-25T08:00:56.104Z,100962.72
2023-02-25T08:03:23.334Z,100969.75
2023-02-25T08:05:54.347Z,100964.56
2023-02-25T08:08:22.420Z,100975.38
2023-02-25T08:10:49.862Z,100979.00
2023-02-25T08:13:17.146Z,100981.69
2023-02-25T08:15:44.907Z,100989.78
2023-02-25T08:18:12.705Z,100985.91
2023-02-25T08:20:39.726Z,100984.31
2023-02-25T08:23:06.709Z,100986.31
2023-02-25T08:25:33.766Z,100988.69
2023-02-25T08:28:01.804Z,100989.78
2023-02-25T08:30:28.779Z,100971.50
2023-02-25T08:32:57.477Z,100982.75
2023-02-25T08:35:25.712Z,100984.16
2023-02-25T08:37:53.314Z,100991.88
2023-02-25T08:40:20.822Z,100990.91
2023-02-25T08:42:47.900Z,100993.88
2023-02-25T08:45:18.082Z,101002.19
2023-02-25T08:47:45.017Z,101001.06
2023-02-25T08:50:12.668Z,101005.84
2023-02-25T08:52:42.346Z,100997.88
2023-02-25T08:55:14.902Z,101004.22
2023-02-25T08:57:43.260Z,100999.69
2023-02-25T09:00:15.600Z,100993.25
2023-02-25T09:02:45.013Z,100994.28
2023-02-25T09:05:12.041Z,100998.81
2023-02-25T09:07:39.032Z,101007.59
2023-02-25T09:10:07.626Z,101002.06
2023-02-25T09:12:36.327Z,100997.28
2023-02-25T09:15:03.830Z,100998.13
2023-02-25T09:17:30.938Z,100992.16
2023-02-25T09:20:01.176Z,100988.25
2023-02-25T09:22:28.704Z,100992.50
2023-02-25T09:24:56.090Z,100995.94
2023-02-25T09:27:23.074Z,100996.97
2023-02-25T09:29:50.339Z,100993.66
2023-02-25T09:32:21.081Z,100992.44
2023-02-25T09:34:52.819Z,100988.47
2023-02-25T09:37:19.771Z,100991.78
2023-02-25T09:39:47.109Z,100994.44
2023-02-25T09:42:19.970Z,100999.44
2023-02-25T09:44:54.106Z,100994.84
2023-02-25T09:47:28.394Z,101003.78
2023-02-25T09:50:08.472Z,100997.88
2023-02-25T09:53:17.804Z,101002.19
2023-02-25T09:55:51.001Z,101007.25
2023-02-25T09:58:32.866Z,100992.59
2023-02-25T10:01:15.602Z,100987.47
2023-02-25T10:04:08.447Z,100995.03
2023-02-25T10:06:49.549Z,100999.75
2023-02-25T10:09:34.796Z,100993.81
2023-02-25T10:12:39.844Z,101005.63
2023-02-25T10:15:50.479Z,101013.81
2023-02-25T10:18:39.462Z,101027.63
2023-02-25T10:21:28.641Z,101024.94
2023-02-25T10:24:44.603Z,101030.13
2023-02-25T10:28:10.418Z,101025.06
2023-02-25T10:30:58.288Z,101023.47
2023-02-25T10:34:26.111Z,101008.34
2023-02-25T10:37:01.112Z,101018.13
2023-02-25T10:39:29.199Z,101016.84
2023-02-25T10:41:56.639Z,101017.81
2023-02-25T10:44:23.674Z,101027.38
2023-02-25T10:46:56.153Z,101041.78
2023-02-25T10:49:30.213Z,101029.34
2023-02-25T10:52:05.661Z,101045.75
2023-02-25T10:54:36.154Z,101039.28
2023-02-25T10:57:14.815Z,101025.94
2023-02-25T10:59:43.483Z,101025.03
2023-02-25T11:02:26.479Z,101019.28
2023-02-25T11:04:55.133Z,101023.47
2023-02-25T11:07:35.541Z,101025.06
2023-02-25T11:10:19.995Z,101033.75
2023-02-25T11:12:53.965Z,101029.06
2023-02-25T11:15:46.197Z,101039.03
2023-02-25T11:18:29.732Z,101037.84
2023-02-25T11:21:01.392Z,101042.13
2023-02-25T11:23:32.697Z,101028.69
2023-02-25T11:26:00.281Z,101025.09
2023-02-25T11:28:31.809Z,101024.44
2023-02-25T11:31:21.673Z,101021.25
2023-02-25T11:34:01.273Z,101008.31
2023-02-25T11:36:38.618Z,101006.88
2023-02-25T11:39:07.614Z,101004.94
2023-02-25T11:41:34.638Z,101019.75
2023-02-25T11:44:43.293Z,101011.31
2023-02-25T11:47:33.213Z,101023.81
2023-02-25T11:50:17.985Z,101028.72
2023-02-25T11:53:11.401Z,101022.41
2023-02-25T11:56:09.886Z,101022.25
2023-02-25T11:59:29.229Z,101031.94
2023-02-25T12:02:37.274Z,101007.66
2023-02-25T12:05:35.342Z,101013.19
2023-02-25T12:08:13.843Z,101008.84
2023-02-25T12:11:08.946Z,101013.25
2023-02-25T12:13:54.514Z,101005.88
2023-02-25T12:16:40.518Z,101005.44
2023-02-25T12:19:26.044Z,101000.84
2023-02-25T12:22:22.668Z,101007.81
2023-02-25T12:25:30.780Z,101007.09
2023-02-25T12:28:07.680Z,101010.16
2023-02-25T12:31:26.325Z,101014.31
2023-02-25T12:34:16.584Z,101009.38
2023-02-25T12:36:49.304Z,101004.16
2023-02-25T12:39:39.367Z,101003.41
2023-02-25T12:42:30.957Z,101000.53
2023-02-25T12:45:25.953Z,100996.44
2023-02-25T12:48:26.774Z,101000.94
2023-02-25T12:51:27.467Z,101000.50
2023-02-25T12:54:49.262Z,100993.97
2023-02-25T12:57:43.489Z,100997.84
2023-02-25T13:00:47.814Z,100985.47
2023-02-25T13:03:42.113Z,100984.19
2023-02-25T13:06:39.196Z,100987.00
2023-02-25T13:09:27.289Z,100988.06
2023-02-25T13:12:25.437Z,101012.09
2023-02-25T13:15:20.849Z,100993.13
2023-02-25T13:18:16.604Z,101005.56
2023-02-25T13:21:05.779Z,100993.41
2023-02-25T13:23:58.238Z,100996.47
2023-02-25T13:26:41.227Z,100993.44
2023-02-25T13:29:26.318Z,100993.56
2023-02-25T13:32:14.408Z,100993.81
2023-02-25T13:34:56.068Z,101004.00
2023-02-25T13:37:42.053Z,100997.72
2023-02-25T13:40:20.493Z,100997.56
2023-02-25T13:43:23.035Z,100989.38
2023-02-25T13:46:02.511Z,100997.50
2023-02-25T13:48:56.752Z,101002.78
2023-02-25T13:51:34.202Z,101000.31
2023-02-25T13:54:32.304Z,101001.66
2023-02-25T13:57:20.661Z,100995.03
2023-02-25T14:00:04.750Z,100996.88
2023-02-25T14:03:23.834Z,100998.31
2023-02-25T14:06:15.227Z,101019.56
2023-02-25T14:09:09.439Z,101015.88
2023-02-25T14:11:48.564Z,101006.81
2023-02-25T14:14:53.795Z,101001.41
2023-02-25T14:17:53.787Z,101007.72
2023-02-25T14:20:44.280Z,101003.66
2023-02-25T14:23:35.283Z,101016.72
2023-02-25T14:26:17.118Z,101018.97
2023-02-25T14:29:07.534Z,101010.94
2023-02-25T14:32:10.538Z,101029.97
2023-02-25T14:35:30.545Z,101029.19
2023-02-25T14:38:22.342Z,101033.13
2023-02-25T14:41:12.320Z,101035.91
2023-02-25T14:43:39.881Z,101026.84
2023-02-25T14:46:53.217Z,101031.75
2023-02-25T14:49:37.671Z,101035.50
2023-02-25T14:52:42.191Z,101038.00
2023-02-25T14:55:35.095Z,101038.09
2023-02-25T14:58:38.993Z,101036.47
2023-02-25T15:01:34.573Z,101048.00
2023-02-25T15:04:35.687Z,101054.28
2023-02-25T15:07:32.526Z,101080.72
2023-02-25T15:10:14.940Z,101068.34
2023-02-25T15:13:26.221Z,101080.31
2023-02-25T15:16:15.208Z,101086.25
2023-02-25T15:19:27.238Z,101076.69
2023-02-25T15:22:16.005Z,101076.81
2023-02-25T15:24:43.397Z,101093.66
2023-02-25T15:27:38.156Z,101098.59
2023-02-25T15:30:12.677Z,101087.91
2023-02-25T15:33:07.754Z,101091.63
2023-02-25T15:35:34.644Z,101112.22
2023-02-25T15:38:02.316Z,101106.16
2023-02-25T15:40:35.026Z,101102.97
2023-02-25T15:43:24.527Z,101114.13
2023-02-25T15:46:23.801Z,101119.38
2023-02-25T15:49:21.167Z,101126.22
2023-02-25T15:51:57.301Z,101130.63
2023-02-25T15:54:30.297Z,101122.53
2023-02-25T15:57:24.816Z,101130.94
2023-02-25T15:59:59.845Z,101126.66
2023-02-25T16:02:30.043Z,101147.06
2023-02-25T16:05:50.260Z,101136.69
2023-02-25T16:08:24.707Z,101145.97
2023-02-25T16:10:54.836Z,101148.41
2023-02-25T16:13:33.475Z,101145.91
2023-02-25T16:16:02.751Z,101158.75
2023-02-25T16:18:47.728Z,101153.81
2023-02-25T16:21:26.200Z,101159.84
2023-02-25T16:23:54.545Z,101158.09
2023-02-25T16:26:43.968Z,101170.22
2023-02-25T16:29:26.089Z,101174.84
2023-02-25T16:32:30.633Z,101179.34
2023-02-25T16:35:11.957Z,101165.75
2023-02-25T16:38:12.072Z,101179.75
2023-02-25T16:40:41.558Z,101177.31
2023-02-25T16:43:17.337Z,101178.94
2023-02-25T16:46:16.390Z,101184.75
2023-02-25T16:48:50.283Z,101192.41
2023-02-25T16:51:32.967Z,101191.13
2023-02-25T16:54:11.883Z,101198.88
2023-02-25T16:56:42.416Z,101194.78
2023-02-25T16:59:21.686Z,101189.94
2023-02-25T17:02:22.657Z,101207.97
2023-02-25T17:04:55.035Z,101199.22
2023-02-25T17:07:27.928Z,101212.97
2023-02-25T17:10:02.078Z,101215.06
2023-02-25T17:12:35.064Z,101220.56
2023-02-25T17:15:06.957Z,101226.47
2023-02-25T17:17:38.751Z,101228.75
2023-02-25T17:20:15.414Z,101229.78
2023-02-25T17:22:44.457Z,101232.78
2023-02-25T17:25:16.294Z,101237.91
2023-02-25T17:27:46.593Z,101242.22
2023-02-25T17:30:45.597Z,101244.50
2023-02-25T17:33:28.323Z,101251.53
2023-02-25T17:36:10.189Z,101248.09
2023-02-25T17:38:39.119Z,101260.50
2023-02-25T17:41:06.412Z,101266.25
2023-02-25T17:43:38.948Z,101272.38
2023-02-25T17:46:30.068Z,101261.88
2023-02-25T17:49:01.333Z,101280.13
2023-02-25T17:51:41.630Z,101289.88
2023-02-25T17:54:21.379Z,101298.59
2023-02-25T17:57:10.532Z,101303.09
2023-02-25T17:59:53.022Z,101292.31
2023-02-25T18:02:22.810Z,101302.06
2023-02-25T18:04:53.544Z,101306.19
2023-02-25T18:07:38.018Z,101307.38
2023-02-25T18:10:10.348Z,101320.06
2023-02-25T18:12:39.472Z,101312.50
2023-02-25T18:15:16.224Z,101321.63
2023-02-25T18:17:49.327Z,101321.31
2023-02-25T18:20:36.234Z,101333.75
2023-02-25T18:23:09.076Z,101335.09
2023-02-25T18:25:42.793Z,101335.59
2023-02-25T18:28:22.685Z,101332.13
2023-02-25T18:30:50.928Z,101336.16
2023-02-25T18:33:18.988Z,101344.81
2023-02-25T18:35:47.635Z,101341.97
2023-02-25T18:38:24.098Z,101352.03
2023-02-25T18:40:53.430Z,101357.66
2023-02-25T18:43:25.429Z,101361.78
2023-02-25T18:45:52.430Z,101362.66
2023-02-25T18:48:19.424Z,101372.38
2023-02-25T18:50:46.445Z,101380.31
2023-02-25T18:53:21.541Z,101384.41
2023-02-25T18:55:49.371Z,101380.88
2023-02-25T18:58:18.524Z,101385.69
2023-02-25T19:00:51.083Z,101394.28
2023-02-25T19:03:29.219Z,101386.03
2023-02-25T19:05:56.972Z,101392.91
2023-02-25T19:08:24.795Z,101384.94
2023-02-25T19:10:53.644Z,101396.03
2023-02-25T19:13:30.188Z,101397.75
2023-02-25T19:15:57.899Z,101400.94
2023-02-25T19:18:25.076Z,101409.03
2023-02-25T19:20:52.596Z,101401.94
2023-02-25T19:23:19.962Z,101396.47
2023-02-25T19:25:53.151Z,101402.03
2023-02-25T19:28:20.181Z,101413.44
2023-02-25T19:30:47.336Z,101406.41
2023-02-25T19:33:15.761Z,101420.19
2023-02-25T19:35:43.678Z,101410.72
2023-02-25T19:38:17.589Z,101407.41
2023-02-25T19:40:46.972Z,101415.00
2023-02-25T19:43:15.335Z,101420.09
2023-02-25T19:45:42.877Z,101413.50
2023-02-25T19:48:10.757Z,101425.72
2023-02-25T19:50:41.662Z,101445.06
2023-02-25T19:53:09.247Z,101442.94
2023-02-25T19:55:36.530Z,101450.59
2023-02-25T19:58:03.530Z,101457.00
2023-02-25T20:00:30.574Z,101450.41
2023-02-25T20:02:57.865Z,101457.22
2023-02-25T20:05:25.499Z,101453.22
2023-02-25T20:07:52.638Z,101457.91
2023-02-25T20:10:21.808Z,101469.16
2023-02-25T20:12:48.948Z,101478.53
2023-02-25T20:15:17.274Z,101485.31
2023-02-25T20:17:46.393Z,101470.25
2023-02-25T20:20:15.138Z,101475.16
2023-02-25T20:22:42.537Z,101476.31
2023-02-25T20:25:11.311Z,101489.00
2023-02-25T20:27:39.912Z,101484.19
2023-02-25T20:30:08.494Z,101491.06
2023-02-25T20:32:35.591Z,101495.88
2023-02-25T20:35:03.721Z,101493.91
2023-02-25T20:37:37.256Z,101493.84
2023-02-25T20:40:08.341Z,101493.19
2023-02-25T20:42:35.550Z,101499.38
2023-02-25T20:45:03.124Z,101497.09
2023-02-25T20:47:37.452Z,101499.66
2023-02-25T20:50:08.542Z,101506.47
2023-02-25T20:52:35.721Z,101509.63
2023-02-25T20:55:05.368Z,101495.31
2023-02-25T20:57:34.269Z,101515.63
2023-02-25T21:00:01.743Z,101516.94
2023-02-25T21:02:28.692Z,101529.72
2023-02-25T21:04:55.705Z,101530.75
2023-02-25T21:07:22.856Z,101536.72
2023-02-25T21:09:49.797Z,101542.75
2023-02-25T21:12:16.821Z,101543.66
2023-02-25T21:14:43.792Z,101549.66
2023-02-25T21:17:13.643Z,101551.50
2023-02-25T21:19:40.990Z,101551.13
2023-02-25T21:22:08.283Z,101555.44
2023-02-25T21:24:36.687Z,101560.66
2023-02-25T21:27:04.438Z,101558.31
2023-02-25T21:29:32.546Z,101555.78
2023-02-25T21:31:59.559Z,101551.19
2023-02-25T21:34:26.930Z,101566.41
2023-02-25T21:36:58.361Z,101561.22
2023-02-25T21:39:26.000Z,101561.44
2023-02-25T21:41:53.302Z,101563.13
2023-02-25T21:44:20.483Z,101560.78
2023-02-25T21:46:47.565Z,101574.50
2023-02-25T21:49:14.780Z,101567.00
2023-02-25T21:51:41.919Z,101578.63
2023-02-25T21:54:09.890Z,101570.66
2023-02-25T21:56:36.925Z,101563.25
2023-02-25T21:59:05.584Z,101558.63
2023-02-25T22:01:37.286Z,101573.19
2023-02-25T22:04:05.648Z,101564.31
2023-02-25T22:06:32.984Z,101561.44
2023-02-25T22:09:00.738Z,101581.38
2023-02-25T22:11:34.863Z,101564.22
2023-02-25T22:14:04.272Z,101580.38
2023-02-25T22:16:31.502Z,101576.75
2023-02-25T22:19:00.549Z,101580.97
2023-02-25T22:21:33.398Z,101589.56
2023-02-25T22:24:02.672Z,101593.13
2023-02-25T22:26:32.753Z,101588.91
2023-02-25T22:29:06.429Z,101588.19
2023-02-25T22:31:35.099Z,101585.72
2023-02-25T22:34:02.916Z,101593.66
2023-02-25T22:36:30.066Z,101600.13
2023-02-25T22:38:57.030Z,101588.22
2023-02-25T22:41:29.567Z,101596.34
2023-02-25T22:43:59.314Z,101606.97
2023-02-25T22:46:38.772Z,101610.69
2023-02-25T22:49:07.503Z,101599.22
2023-02-25T22:51:40.555Z,101605.97
2023-02-25T22:54:08.130Z,101604.03
2023-02-25T22:56:35.164Z,101603.44
2023-02-25T22:59:02.350Z,101606.75
2023-02-25T23:01:29.540Z,101611.44
2023-02-25T23:03:57.392Z,101610.44
2023-02-25T23:06:42.228Z,101610.19
2023-02-25T23:09:11.520Z,101616.88
2023-02-25T23:11:42.248Z,101615.00
2023-02-25T23:14:09.500Z,101619.25
2023-02-25T23:16:43.863Z,101618.72
2023-02-25T23:19:17.562Z,101622.53
2023-02-25T23:21:45.439Z,101634.09
2023-02-25T23:24:18.673Z,101634.91
2023-02-25T23:26:50.168Z,101631.88
2023-02-25T23:29:17.250Z,101626.16
2023-02-25T23:31:47.397Z,101636.59
2023-02-25T23:34:20.935Z,101642.66
2023-02-25T23:36:47.893Z,101635.88
2023-02-25T23:39:16.293Z,101635.25
2023-02-25T23:41:44.253Z,101636.50
2023-02-25T23:44:13.218Z,101633.91
2023-02-25T23:46:45.201Z,101638.19
2023-02-25T23:49:15.820Z,101644.88
2023-02-25T23:51:45.822Z,101647.41
2023-02-25T23:54:17.353Z,101642.88
2023-02-25T23:56:45.125Z,101644.22
2023-02-25T23:59:13.099Z,101642.34
